sensor_id;sensor_type;location;lat;lon;timestamp;P1;durP1;ratioP1;P2;durP2;ratioP2
27305;SDS011;14792;50.886;6.468;2023-07-29T00:02:50;3.75;;;1.40;;
27305;SDS011;14792;50.886;6.468;2023-07-29T00:05:51;4.83;;;1.72;;
27305;SDS011;14792;50.886;6.468;2023-07-29T00:08:53;3.77;;;1.40;;
27305;SDS011;14792;50.886;6.468;2023-07-29T00:11:55;5.28;;;1.50;;
27305;SDS011;14792;50.886;6.468;2023-07-29T00:14:56;6.55;;;1.65;;
27305;SDS011;14792;50.886;6.468;2023-07-29T00:17:58;5.25;;;1.87;;
27305;SDS011;14792;50.886;6.468;2023-07-29T00:21:00;9.18;;;1.95;;
27305;SDS011;14792;50.886;6.468;2023-07-29T00:24:01;3.67;;;1.60;;
27305;SDS011;14792;50.886;6.468;2023-07-29T00:27:03;5.78;;;1.57;;
27305;SDS011;14792;50.886;6.468;2023-07-29T00:30:06;5.92;;;1.70;;
27305;SDS011;14792;50.886;6.468;2023-07-29T00:33:08;7.65;;;1.90;;
27305;SDS011;14792;50.886;6.468;2023-07-29T00:36:09;5.72;;;1.40;;
27305;SDS011;14792;50.886;6.468;2023-07-29T00:39:11;3.90;;;1.70;;
27305;SDS011;14792;50.886;6.468;2023-07-29T00:42:13;4.03;;;1.98;;
27305;SDS011;14792;50.886;6.468;2023-07-29T00:45:14;5.42;;;1.80;;
27305;SDS011;14792;50.886;6.468;2023-07-29T00:48:16;9.53;;;1.70;;
27305;SDS011;14792;50.886;6.468;2023-07-29T00:51:17;12.98;;;1.92;;
27305;SDS011;14792;50.886;6.468;2023-07-29T00:54:19;5.75;;;1.95;;
27305;SDS011;14792;50.886;6.468;2023-07-29T00:57:21;2.72;;;1.65;;
27305;SDS011;14792;50.886;6.468;2023-07-29T01:00:22;6.35;;;2.15;;
27305;SDS011;14792;50.886;6.468;2023-07-29T01:03:24;7.62;;;2.30;;
27305;SDS011;14792;50.886;6.468;2023-07-29T01:12:48;5.25;;;2.60;;
27305;SDS011;14792;50.886;6.468;2023-07-29T01:19:10;3.92;;;3.35;;
27305;SDS011;14792;50.886;6.468;2023-07-29T01:22:10;6.50;;;3.62;;
27305;SDS011;14792;50.886;6.468;2023-07-29T01:25:12;4.20;;;3.17;;
27305;SDS011;14792;50.886;6.468;2023-07-29T01:28:13;7.80;;;3.30;;
27305;SDS011;14792;50.886;6.468;2023-07-29T01:31:18;4.85;;;3.27;;
27305;SDS011;14792;50.886;6.468;2023-07-29T01:34:22;2.83;;;2.55;;
27305;SDS011;14792;50.886;6.468;2023-07-29T01:37:26;6.40;;;2.98;;
27305;SDS011;14792;50.886;6.468;2023-07-29T01:40:26;3.85;;;2.58;;
27305;SDS011;14792;50.886;6.468;2023-07-29T01:43:28;2.80;;;2.50;;
27305;SDS011;14792;50.886;6.468;2023-07-29T01:46:28;5.80;;;2.87;;
27305;SDS011;14792;50.886;6.468;2023-07-29T01:49:30;3.60;;;2.83;;
27305;SDS011;14792;50.886;6.468;2023-07-29T01:52:32;2.45;;;2.08;;
27305;SDS011;14792;50.886;6.468;2023-07-29T01:55:33;3.25;;;2.10;;
27305;SDS011;14792;50.886;6.468;2023-07-29T01:58:36;4.22;;;2.15;;
27305;SDS011;14792;50.886;6.468;2023-07-29T02:01:37;4.58;;;1.82;;
27305;SDS011;14792;50.886;6.468;2023-07-29T02:04:39;2.45;;;1.80;;
27305;SDS011;14792;50.886;6.468;2023-07-29T02:07:41;2.37;;;1.80;;
27305;SDS011;14792;50.886;6.468;2023-07-29T02:10:42;6.80;;;2.35;;
27305;SDS011;14792;50.886;6.468;2023-07-29T02:13:44;2.00;;;1.60;;
27305;SDS011;14792;50.886;6.468;2023-07-29T02:16:45;6.72;;;2.20;;
27305;SDS011;14792;50.886;6.468;2023-07-29T02:19:47;4.83;;;2.77;;
27305;SDS011;14792;50.886;6.468;2023-07-29T02:22:49;3.00;;;1.85;;
27305;SDS011;14792;50.886;6.468;2023-07-29T02:25:50;3.02;;;1.80;;
27305;SDS011;14792;50.886;6.468;2023-07-29T02:28:52;2.00;;;1.50;;
27305;SDS011;14792;50.886;6.468;2023-07-29T02:31:53;3.47;;;1.98;;
27305;SDS011;14792;50.886;6.468;2023-07-29T02:34:55;3.33;;;1.87;;
27305;SDS011;14792;50.886;6.468;2023-07-29T02:37:56;3.50;;;2.10;;
27305;SDS011;14792;50.886;6.468;2023-07-29T02:40:58;2.08;;;1.80;;
27305;SDS011;14792;50.886;6.468;2023-07-29T02:44:01;4.08;;;1.60;;
27305;SDS011;14792;50.886;6.468;2023-07-29T02:47:01;2.40;;;1.67;;
27305;SDS011;14792;50.886;6.468;2023-07-29T02:50:03;3.25;;;1.60;;
27305;SDS011;14792;50.886;6.468;2023-07-29T02:53:06;4.25;;;1.80;;
27305;SDS011;14792;50.886;6.468;2023-07-29T02:56:08;5.60;;;2.10;;
27305;SDS011;14792;50.886;6.468;2023-07-29T02:59:10;3.85;;;1.87;;
27305;SDS011;14792;50.886;6.468;2023-07-29T03:02:11;5.87;;;1.98;;
27305;SDS011;14792;50.886;6.468;2023-07-29T03:05:13;3.27;;;1.95;;
27305;SDS011;14792;50.886;6.468;2023-07-29T03:08:14;5.35;;;1.72;;
27305;SDS011;14792;50.886;6.468;2023-07-29T03:11:16;2.10;;;1.60;;
27305;SDS011;14792;50.886;6.468;2023-07-29T03:14:18;3.98;;;2.22;;
27305;SDS011;14792;50.886;6.468;2023-07-29T03:17:19;3.77;;;2.00;;
27305;SDS011;14792;50.886;6.468;2023-07-29T03:20:21;5.17;;;2.33;;
27305;SDS011;14792;50.886;6.468;2023-07-29T03:23:22;3.47;;;1.95;;
27305;SDS011;14792;50.886;6.468;2023-07-29T03:26:24;5.28;;;2.40;;
27305;SDS011;14792;50.886;6.468;2023-07-29T03:29:25;6.53;;;2.27;;
27305;SDS011;14792;50.886;6.468;2023-07-29T03:32:27;3.45;;;2.30;;
27305;SDS011;14792;50.886;6.468;2023-07-29T03:35:29;2.50;;;2.30;;
27305;SDS011;14792;50.886;6.468;2023-07-29T03:38:30;5.65;;;2.70;;
27305;SDS011;14792;50.886;6.468;2023-07-29T03:41:32;2.85;;;2.55;;
27305;SDS011;14792;50.886;6.468;2023-07-29T03:44:33;4.80;;;2.42;;
27305;SDS011;14792;50.886;6.468;2023-07-29T03:47:36;5.25;;;2.98;;
27305;SDS011;14792;50.886;6.468;2023-07-29T03:50:38;4.28;;;3.05;;
27305;SDS011;14792;50.886;6.468;2023-07-29T03:56:41;6.83;;;3.37;;
27305;SDS011;14792;50.886;6.468;2023-07-29T03:59:43;7.62;;;4.10;;
27305;SDS011;14792;50.886;6.468;2023-07-29T04:02:44;7.35;;;3.80;;
27305;SDS011;14792;50.886;6.468;2023-07-29T04:05:46;3.95;;;3.60;;
27305;SDS011;14792;50.886;6.468;2023-07-29T04:08:47;5.05;;;3.87;;
27305;SDS011;14792;50.886;6.468;2023-07-29T04:11:49;6.83;;;3.72;;
27305;SDS011;14792;50.886;6.468;2023-07-29T04:14:50;8.15;;;3.83;;
27305;SDS011;14792;50.886;6.468;2023-07-29T04:17:52;5.97;;;3.20;;
27305;SDS011;14792;50.886;6.468;2023-07-29T04:20:54;8.45;;;3.30;;
27305;SDS011;14792;50.886;6.468;2023-07-29T04:23:55;7.33;;;3.90;;
27305;SDS011;14792;50.886;6.468;2023-07-29T04:26:57;7.08;;;3.47;;
27305;SDS011;14792;50.886;6.468;2023-07-29T04:29:59;8.58;;;3.33;;
27305;SDS011;14792;50.886;6.468;2023-07-29T04:33:00;5.97;;;3.95;;
27305;SDS011;14792;50.886;6.468;2023-07-29T04:36:02;4.65;;;3.12;;
27305;SDS011;14792;50.886;6.468;2023-07-29T04:39:03;4.97;;;3.12;;
27305;SDS011;14792;50.886;6.468;2023-07-29T04:42:07;6.55;;;3.12;;
27305;SDS011;14792;50.886;6.468;2023-07-29T04:45:08;5.90;;;3.37;;
27305;SDS011;14792;50.886;6.468;2023-07-29T04:48:10;6.03;;;3.17;;
27305;SDS011;14792;50.886;6.468;2023-07-29T04:51:12;5.62;;;3.00;;
27305;SDS011;14792;50.886;6.468;2023-07-29T04:54:13;8.58;;;3.27;;
27305;SDS011;14792;50.886;6.468;2023-07-29T04:57:15;7.03;;;3.50;;
27305;SDS011;14792;50.886;6.468;2023-07-29T05:00:17;5.85;;;3.45;;
27305;SDS011;14792;50.886;6.468;2023-07-29T05:03:18;11.50;;;3.47;;
27305;SDS011;14792;50.886;6.468;2023-07-29T05:06:20;7.97;;;3.83;;
27305;SDS011;14792;50.886;6.468;2023-07-29T05:09:21;6.05;;;3.17;;
27305;SDS011;14792;50.886;6.468;2023-07-29T05:12:23;5.42;;;3.22;;
27305;SDS011;14792;50.886;6.468;2023-07-29T05:15:24;9.13;;;3.62;;
27305;SDS011;14792;50.886;6.468;2023-07-29T05:18:26;5.85;;;3.60;;
27305;SDS011;14792;50.886;6.468;2023-07-29T05:21:28;5.17;;;3.40;;
27305;SDS011;14792;50.886;6.468;2023-07-29T05:24:29;5.78;;;3.42;;
27305;SDS011;14792;50.886;6.468;2023-07-29T05:27:31;4.80;;;3.77;;
27305;SDS011;14792;50.886;6.468;2023-07-29T05:30:32;7.50;;;3.87;;
27305;SDS011;14792;50.886;6.468;2023-07-29T05:33:34;4.60;;;4.10;;
27305;SDS011;14792;50.886;6.468;2023-07-29T05:36:37;6.33;;;4.45;;
27305;SDS011;14792;50.886;6.468;2023-07-29T05:39:39;5.00;;;4.20;;
27305;SDS011;14792;50.886;6.468;2023-07-29T05:42:41;11.93;;;4.60;;
27305;SDS011;14792;50.886;6.468;2023-07-29T05:45:42;5.25;;;4.42;;
27305;SDS011;14792;50.886;6.468;2023-07-29T05:48:44;6.95;;;4.67;;
27305;SDS011;14792;50.886;6.468;2023-07-29T05:51:46;7.50;;;4.70;;
27305;SDS011;14792;50.886;6.468;2023-07-29T05:54:47;8.73;;;4.67;;
27305;SDS011;14792;50.886;6.468;2023-07-29T05:57:49;10.05;;;4.47;;
27305;SDS011;14792;50.886;6.468;2023-07-29T06:00:51;10.82;;;4.42;;
27305;SDS011;14792;50.886;6.468;2023-07-29T06:03:52;5.80;;;4.20;;
27305;SDS011;14792;50.886;6.468;2023-07-29T06:06:54;8.50;;;4.17;;
27305;SDS011;14792;50.886;6.468;2023-07-29T06:09:55;7.87;;;4.22;;
27305;SDS011;14792;50.886;6.468;2023-07-29T06:12:57;6.08;;;4.00;;
27305;SDS011;14792;50.886;6.468;2023-07-29T06:15:59;7.80;;;4.08;;
27305;SDS011;14792;50.886;6.468;2023-07-29T06:19:00;10.40;;;3.85;;
27305;SDS011;14792;50.886;6.468;2023-07-29T06:22:02;8.65;;;4.08;;
27305;SDS011;14792;50.886;6.468;2023-07-29T06:25:03;8.98;;;4.25;;
27305;SDS011;14792;50.886;6.468;2023-07-29T06:28:08;5.67;;;4.00;;
27305;SDS011;14792;50.886;6.468;2023-07-29T06:31:09;7.60;;;4.40;;
27305;SDS011;14792;50.886;6.468;2023-07-29T06:34:11;8.03;;;4.28;;
27305;SDS011;14792;50.886;6.468;2023-07-29T06:37:12;7.42;;;4.00;;
27305;SDS011;14792;50.886;6.468;2023-07-29T06:40:14;6.75;;;4.40;;
27305;SDS011;14792;50.886;6.468;2023-07-29T06:43:16;6.92;;;4.00;;
27305;SDS011;14792;50.886;6.468;2023-07-29T06:46:17;6.30;;;3.67;;
27305;SDS011;14792;50.886;6.468;2023-07-29T06:49:19;8.70;;;3.70;;
27305;SDS011;14792;50.886;6.468;2023-07-29T06:52:20;4.37;;;3.40;;
27305;SDS011;14792;50.886;6.468;2023-07-29T06:55:22;7.92;;;2.80;;
27305;SDS011;14792;50.886;6.468;2023-07-29T06:58:24;6.87;;;2.65;;
27305;SDS011;14792;50.886;6.468;2023-07-29T07:01:25;6.37;;;2.00;;
27305;SDS011;14792;50.886;6.468;2023-07-29T07:04:27;3.67;;;1.82;;
27305;SDS011;14792;50.886;6.468;2023-07-29T07:07:28;4.17;;;1.77;;
27305;SDS011;14792;50.886;6.468;2023-07-29T07:10:30;4.70;;;1.60;;
27305;SDS011;14792;50.886;6.468;2023-07-29T07:13:31;3.58;;;1.50;;
27305;SDS011;14792;50.886;6.468;2023-07-29T07:16:33;3.72;;;1.85;;
27305;SDS011;14792;50.886;6.468;2023-07-29T07:19:36;3.25;;;2.00;;
27305;SDS011;14792;50.886;6.468;2023-07-29T07:22:38;2.62;;;1.50;;
27305;SDS011;14792;50.886;6.468;2023-07-29T07:25:40;3.55;;;1.87;;
27305;SDS011;14792;50.886;6.468;2023-07-29T07:28:41;2.37;;;1.47;;
27305;SDS011;14792;50.886;6.468;2023-07-29T07:31:47;4.40;;;1.57;;
27305;SDS011;14792;50.886;6.468;2023-07-29T07:34:44;4.33;;;1.90;;
27305;SDS011;14792;50.886;6.468;2023-07-29T07:37:46;2.85;;;1.70;;
27305;SDS011;14792;50.886;6.468;2023-07-29T07:40:54;4.28;;;2.02;;
27305;SDS011;14792;50.886;6.468;2023-07-29T07:43:55;2.85;;;1.42;;
27305;SDS011;14792;50.886;6.468;2023-07-29T07:46:57;3.12;;;1.65;;
27305;SDS011;14792;50.886;6.468;2023-07-29T07:49:58;6.35;;;1.47;;
27305;SDS011;14792;50.886;6.468;2023-07-29T07:53:00;3.27;;;1.62;;
27305;SDS011;14792;50.886;6.468;2023-07-29T07:56:02;5.58;;;1.50;;
27305;SDS011;14792;50.886;6.468;2023-07-29T07:59:03;2.85;;;1.52;;
27305;SDS011;14792;50.886;6.468;2023-07-29T08:02:07;2.33;;;1.35;;
27305;SDS011;14792;50.886;6.468;2023-07-29T08:05:09;3.52;;;1.32;;
27305;SDS011;14792;50.886;6.468;2023-07-29T08:08:10;1.82;;;1.30;;
27305;SDS011;14792;50.886;6.468;2023-07-29T08:11:12;1.65;;;1.27;;
27305;SDS011;14792;50.886;6.468;2023-07-29T08:14:13;5.53;;;1.20;;
27305;SDS011;14792;50.886;6.468;2023-07-29T08:17:15;1.82;;;1.25;;
27305;SDS011;14792;50.886;6.468;2023-07-29T08:20:17;4.25;;;1.47;;
27305;SDS011;14792;50.886;6.468;2023-07-29T08:23:18;3.33;;;1.22;;
27305;SDS011;14792;50.886;6.468;2023-07-29T08:26:20;2.42;;;0.90;;
27305;SDS011;14792;50.886;6.468;2023-07-29T08:29:21;2.08;;;1.12;;
27305;SDS011;14792;50.886;6.468;2023-07-29T08:32:23;2.20;;;1.40;;
27305;SDS011;14792;50.886;6.468;2023-07-29T08:35:24;2.42;;;1.22;;
27305;SDS011;14792;50.886;6.468;2023-07-29T08:38:26;2.25;;;1.42;;
27305;SDS011;14792;50.886;6.468;2023-07-29T08:41:45;6.25;;;1.70;;
27305;SDS011;14792;50.886;6.468;2023-07-29T08:44:50;3.90;;;1.10;;
27305;SDS011;14792;50.886;6.468;2023-07-29T08:47:52;1.52;;;1.12;;
27305;SDS011;14792;50.886;6.468;2023-07-29T08:50:54;2.02;;;1.25;;
27305;SDS011;14792;50.886;6.468;2023-07-29T08:53:55;3.52;;;1.37;;
27305;SDS011;14792;50.886;6.468;2023-07-29T08:56:57;3.17;;;1.22;;
27305;SDS011;14792;50.886;6.468;2023-07-29T08:59:58;2.35;;;1.20;;
27305;SDS011;14792;50.886;6.468;2023-07-29T09:03:00;1.57;;;1.17;;
27305;SDS011;14792;50.886;6.468;2023-07-29T09:06:02;1.50;;;1.22;;
27305;SDS011;14792;50.886;6.468;2023-07-29T09:09:03;1.80;;;1.32;;
27305;SDS011;14792;50.886;6.468;2023-07-29T09:12:11;2.00;;;1.40;;
27305;SDS011;14792;50.886;6.468;2023-07-29T09:15:09;3.85;;;1.10;;
27305;SDS011;14792;50.886;6.468;2023-07-29T09:18:17;2.47;;;1.12;;
27305;SDS011;14792;50.886;6.468;2023-07-29T09:21:22;2.30;;;1.40;;
27305;SDS011;14792;50.886;6.468;2023-07-29T09:24:28;4.15;;;1.27;;
27305;SDS011;14792;50.886;6.468;2023-07-29T09:27:30;1.90;;;1.10;;
27305;SDS011;14792;50.886;6.468;2023-07-29T09:30:31;2.08;;;1.20;;
27305;SDS011;14792;50.886;6.468;2023-07-29T09:33:34;3.22;;;1.27;;
27305;SDS011;14792;50.886;6.468;2023-07-29T09:36:35;3.58;;;1.30;;
27305;SDS011;14792;50.886;6.468;2023-07-29T09:39:38;2.25;;;1.35;;
27305;SDS011;14792;50.886;6.468;2023-07-29T09:42:39;1.95;;;1.27;;
27305;SDS011;14792;50.886;6.468;2023-07-29T09:45:41;3.40;;;1.20;;
27305;SDS011;14792;50.886;6.468;2023-07-29T09:48:43;2.10;;;1.57;;
27305;SDS011;14792;50.886;6.468;2023-07-29T09:51:44;2.75;;;1.45;;
27305;SDS011;14792;50.886;6.468;2023-07-29T09:54:46;2.45;;;1.45;;
27305;SDS011;14792;50.886;6.468;2023-07-29T09:57:47;2.90;;;1.62;;
27305;SDS011;14792;50.886;6.468;2023-07-29T10:00:49;2.20;;;1.57;;
27305;SDS011;14792;50.886;6.468;2023-07-29T10:03:51;2.50;;;1.57;;
27305;SDS011;14792;50.886;6.468;2023-07-29T10:06:52;5.53;;;1.82;;
27305;SDS011;14792;50.886;6.468;2023-07-29T10:09:54;3.40;;;1.70;;
27305;SDS011;14792;50.886;6.468;2023-07-29T10:12:55;7.72;;;1.82;;
27305;SDS011;14792;50.886;6.468;2023-07-29T10:15:57;2.83;;;1.80;;
27305;SDS011;14792;50.886;6.468;2023-07-29T10:18:59;4.25;;;1.50;;
27305;SDS011;14792;50.886;6.468;2023-07-29T10:22:00;3.45;;;1.77;;
27305;SDS011;14792;50.886;6.468;2023-07-29T10:25:09;3.27;;;1.55;;
27305;SDS011;14792;50.886;6.468;2023-07-29T10:28:10;3.47;;;1.47;;
27305;SDS011;14792;50.886;6.468;2023-07-29T10:31:11;2.52;;;1.40;;
27305;SDS011;14792;50.886;6.468;2023-07-29T10:34:13;2.80;;;1.15;;
27305;SDS011;14792;50.886;6.468;2023-07-29T10:37:14;3.12;;;1.20;;
27305;SDS011;14792;50.886;6.468;2023-07-29T10:40:16;3.77;;;1.40;;
27305;SDS011;14792;50.886;6.468;2023-07-29T10:43:36;2.83;;;1.20;;
27305;SDS011;14792;50.886;6.468;2023-07-29T10:46:28;2.67;;;1.25;;
27305;SDS011;14792;50.886;6.468;2023-07-29T10:49:30;2.12;;;1.42;;
27305;SDS011;14792;50.886;6.468;2023-07-29T10:55:38;3.05;;;1.30;;
27305;SDS011;14792;50.886;6.468;2023-07-29T10:58:41;1.22;;;1.12;;
27305;SDS011;14792;50.886;6.468;2023-07-29T11:01:42;2.58;;;1.30;;
27305;SDS011;14792;50.886;6.468;2023-07-29T11:07:48;2.45;;;1.15;;
27305;SDS011;14792;50.886;6.468;2023-07-29T11:14:04;1.85;;;1.20;;
27305;SDS011;14792;50.886;6.468;2023-07-29T11:17:07;1.17;;;1.07;;
27305;SDS011;14792;50.886;6.468;2023-07-29T11:20:11;3.33;;;1.20;;
27305;SDS011;14792;50.886;6.468;2023-07-29T11:23:12;1.52;;;1.00;;
27305;SDS011;14792;50.886;6.468;2023-07-29T11:26:14;1.37;;;1.22;;
27305;SDS011;14792;50.886;6.468;2023-07-29T11:29:15;2.05;;;1.30;;
27305;SDS011;14792;50.886;6.468;2023-07-29T11:32:17;1.62;;;1.10;;
27305;SDS011;14792;50.886;6.468;2023-07-29T11:35:18;1.92;;;1.20;;
27305;SDS011;14792;50.886;6.468;2023-07-29T11:38:20;2.08;;;1.60;;
27305;SDS011;14792;50.886;6.468;2023-07-29T11:41:22;2.30;;;1.40;;
27305;SDS011;14792;50.886;6.468;2023-07-29T11:44:24;2.27;;;1.42;;
27305;SDS011;14792;50.886;6.468;2023-07-29T11:47:25;1.47;;;1.35;;
27305;SDS011;14792;50.886;6.468;2023-07-29T11:53:28;3.25;;;1.25;;
27305;SDS011;14792;50.886;6.468;2023-07-29T11:56:29;1.42;;;1.32;;
27305;SDS011;14792;50.886;6.468;2023-07-29T11:59:31;3.20;;;1.45;;
27305;SDS011;14792;50.886;6.468;2023-07-29T12:02:33;2.20;;;1.50;;
27305;SDS011;14792;50.886;6.468;2023-07-29T12:05:34;2.70;;;1.45;;
27305;SDS011;14792;50.886;6.468;2023-07-29T12:08:38;3.27;;;1.40;;
27305;SDS011;14792;50.886;6.468;2023-07-29T12:11:40;3.67;;;1.50;;
27305;SDS011;14792;50.886;6.468;2023-07-29T12:14:44;2.08;;;1.52;;
27305;SDS011;14792;50.886;6.468;2023-07-29T12:17:48;4.72;;;1.45;;
27305;SDS011;14792;50.886;6.468;2023-07-29T12:20:50;3.58;;;1.60;;
27305;SDS011;14792;50.886;6.468;2023-07-29T12:23:51;1.60;;;1.22;;
27305;SDS011;14792;50.886;6.468;2023-07-29T12:26:53;2.85;;;1.20;;
27305;SDS011;14792;50.886;6.468;2023-07-29T12:29:55;2.12;;;1.42;;
27305;SDS011;14792;50.886;6.468;2023-07-29T12:32:56;1.40;;;1.30;;
27305;SDS011;14792;50.886;6.468;2023-07-29T12:35:58;2.05;;;1.30;;
27305;SDS011;14792;50.886;6.468;2023-07-29T12:39:00;1.67;;;1.50;;
27305;SDS011;14792;50.886;6.468;2023-07-29T12:42:02;1.55;;;1.42;;
27305;SDS011;14792;50.886;6.468;2023-07-29T12:45:03;1.50;;;1.30;;
27305;SDS011;14792;50.886;6.468;2023-07-29T12:48:04;3.52;;;1.65;;
27305;SDS011;14792;50.886;6.468;2023-07-29T12:51:07;3.20;;;1.30;;
27305;SDS011;14792;50.886;6.468;2023-07-29T12:54:09;1.37;;;1.27;;
27305;SDS011;14792;50.886;6.468;2023-07-29T13:00:11;1.95;;;1.40;;
27305;SDS011;14792;50.886;6.468;2023-07-29T13:03:13;3.15;;;1.32;;
27305;SDS011;14792;50.886;6.468;2023-07-29T13:06:15;1.57;;;1.47;;
27305;SDS011;14792;50.886;6.468;2023-07-29T13:09:16;1.92;;;1.60;;
27305;SDS011;14792;50.886;6.468;2023-07-29T13:12:18;4.53;;;1.65;;
27305;SDS011;14792;50.886;6.468;2023-07-29T13:15:21;2.42;;;1.57;;
27305;SDS011;14792;50.886;6.468;2023-07-29T13:18:23;2.52;;;1.65;;
27305;SDS011;14792;50.886;6.468;2023-07-29T13:21:25;3.33;;;1.62;;
27305;SDS011;14792;50.886;6.468;2023-07-29T13:24:26;3.35;;;2.08;;
27305;SDS011;14792;50.886;6.468;2023-07-29T13:27:28;4.08;;;2.05;;
27305;SDS011;14792;50.886;6.468;2023-07-29T13:30:30;3.83;;;2.22;;
27305;SDS011;14792;50.886;6.468;2023-07-29T13:33:31;8.73;;;2.35;;
27305;SDS011;14792;50.886;6.468;2023-07-29T13:36:33;6.25;;;2.35;;
27305;SDS011;14792;50.886;6.468;2023-07-29T13:39:34;3.25;;;2.20;;
27305;SDS011;14792;50.886;6.468;2023-07-29T13:42:38;2.65;;;2.20;;
27305;SDS011;14792;50.886;6.468;2023-07-29T13:45:40;2.33;;;2.00;;
27305;SDS011;14792;50.886;6.468;2023-07-29T13:48:41;3.12;;;1.82;;
27305;SDS011;14792;50.886;6.468;2023-07-29T13:51:43;5.08;;;2.10;;
27305;SDS011;14792;50.886;6.468;2023-07-29T13:54:44;3.08;;;2.08;;
27305;SDS011;14792;50.886;6.468;2023-07-29T13:57:46;5.40;;;2.40;;
27305;SDS011;14792;50.886;6.468;2023-07-29T14:00:48;2.20;;;2.00;;
27305;SDS011;14792;50.886;6.468;2023-07-29T14:03:49;2.27;;;1.80;;
27305;SDS011;14792;50.886;6.468;2023-07-29T14:06:51;2.92;;;2.20;;
27305;SDS011;14792;50.886;6.468;2023-07-29T14:09:52;3.30;;;1.85;;
27305;SDS011;14792;50.886;6.468;2023-07-29T14:12:54;2.58;;;1.70;;
27305;SDS011;14792;50.886;6.468;2023-07-29T14:15:55;3.52;;;1.70;;
27305;SDS011;14792;50.886;6.468;2023-07-29T14:18:57;3.80;;;2.20;;
27305;SDS011;14792;50.886;6.468;2023-07-29T14:21:59;4.50;;;2.40;;
27305;SDS011;14792;50.886;6.468;2023-07-29T14:25:00;2.72;;;2.22;;
27305;SDS011;14792;50.886;6.468;2023-07-29T14:28:02;4.22;;;2.27;;
27305;SDS011;14792;50.886;6.468;2023-07-29T14:31:03;5.45;;;2.05;;
27305;SDS011;14792;50.886;6.468;2023-07-29T14:34:07;2.55;;;2.30;;
27305;SDS011;14792;50.886;6.468;2023-07-29T14:37:09;2.62;;;2.20;;
27305;SDS011;14792;50.886;6.468;2023-07-29T14:40:11;3.80;;;2.42;;
27305;SDS011;14792;50.886;6.468;2023-07-29T14:46:14;3.95;;;1.95;;
27305;SDS011;14792;50.886;6.468;2023-07-29T14:49:16;2.37;;;2.08;;
27305;SDS011;14792;50.886;6.468;2023-07-29T14:52:17;5.30;;;2.45;;
27305;SDS011;14792;50.886;6.468;2023-07-29T14:55:19;4.25;;;2.37;;
27305;SDS011;14792;50.886;6.468;2023-07-29T14:58:20;3.33;;;2.22;;
27305;SDS011;14792;50.886;6.468;2023-07-29T15:01:22;2.85;;;2.27;;
27305;SDS011;14792;50.886;6.468;2023-07-29T15:04:24;2.65;;;1.85;;
27305;SDS011;14792;50.886;6.468;2023-07-29T15:07:25;4.28;;;1.98;;
27305;SDS011;14792;50.886;6.468;2023-07-29T15:10:27;3.00;;;2.27;;
27305;SDS011;14792;50.886;6.468;2023-07-29T15:13:28;4.15;;;1.85;;
27305;SDS011;14792;50.886;6.468;2023-07-29T15:16:30;4.35;;;2.20;;
27305;SDS011;14792;50.886;6.468;2023-07-29T15:19:32;3.60;;;2.22;;
27305;SDS011;14792;50.886;6.468;2023-07-29T15:22:33;4.60;;;2.55;;
27305;SDS011;14792;50.886;6.468;2023-07-29T15:25:35;4.12;;;2.35;;
27305;SDS011;14792;50.886;6.468;2023-07-29T15:28:38;2.42;;;2.22;;
27305;SDS011;14792;50.886;6.468;2023-07-29T15:31:40;3.98;;;2.50;;
27305;SDS011;14792;50.886;6.468;2023-07-29T15:34:41;4.28;;;2.20;;
27305;SDS011;14792;50.886;6.468;2023-07-29T15:37:43;3.55;;;2.20;;
27305;SDS011;14792;50.886;6.468;2023-07-29T15:40:44;4.70;;;2.00;;
27305;SDS011;14792;50.886;6.468;2023-07-29T15:43:46;5.65;;;2.55;;
27305;SDS011;14792;50.886;6.468;2023-07-29T15:46:47;2.95;;;2.42;;
27305;SDS011;14792;50.886;6.468;2023-07-29T15:49:49;2.92;;;2.40;;
27305;SDS011;14792;50.886;6.468;2023-07-29T15:52:50;3.00;;;2.47;;
27305;SDS011;14792;50.886;6.468;2023-07-29T15:55:52;2.67;;;2.30;;
27305;SDS011;14792;50.886;6.468;2023-07-29T15:58:54;4.33;;;2.30;;
27305;SDS011;14792;50.886;6.468;2023-07-29T16:01:55;3.02;;;2.72;;
27305;SDS011;14792;50.886;6.468;2023-07-29T16:04:57;3.52;;;1.98;;
27305;SDS011;14792;50.886;6.468;2023-07-29T16:07:58;6.60;;;2.67;;
27305;SDS011;14792;50.886;6.468;2023-07-29T16:11:00;3.25;;;2.42;;
27305;SDS011;14792;50.886;6.468;2023-07-29T16:14:02;4.83;;;2.08;;
27305;SDS011;14792;50.886;6.468;2023-07-29T16:17:03;4.30;;;2.25;;
27305;SDS011;14792;50.886;6.468;2023-07-29T16:20:05;3.05;;;2.25;;
27305;SDS011;14792;50.886;6.468;2023-07-29T16:23:09;4.30;;;2.33;;
27305;SDS011;14792;50.886;6.468;2023-07-29T16:26:11;2.75;;;2.30;;
27305;SDS011;14792;50.886;6.468;2023-07-29T16:29:13;4.67;;;2.80;;
27305;SDS011;14792;50.886;6.468;2023-07-29T16:32:14;3.92;;;2.37;;
27305;SDS011;14792;50.886;6.468;2023-07-29T16:35:16;2.37;;;2.12;;
27305;SDS011;14792;50.886;6.468;2023-07-29T16:38:17;3.12;;;2.15;;
27305;SDS011;14792;50.886;6.468;2023-07-29T16:41:22;3.77;;;2.27;;
27305;SDS011;14792;50.886;6.468;2023-07-29T16:44:23;2.15;;;1.95;;
27305;SDS011;14792;50.886;6.468;2023-07-29T16:47:25;3.87;;;2.87;;
27305;SDS011;14792;50.886;6.468;2023-07-29T16:50:26;6.87;;;2.92;;
27305;SDS011;14792;50.886;6.468;2023-07-29T16:53:28;5.70;;;2.65;;
27305;SDS011;14792;50.886;6.468;2023-07-29T16:56:30;4.30;;;2.50;;
27305;SDS011;14792;50.886;6.468;2023-07-29T16:59:31;2.95;;;2.42;;
27305;SDS011;14792;50.886;6.468;2023-07-29T17:02:33;5.65;;;3.12;;
27305;SDS011;14792;50.886;6.468;2023-07-29T17:05:35;5.50;;;2.77;;
27305;SDS011;14792;50.886;6.468;2023-07-29T17:08:41;3.92;;;2.50;;
27305;SDS011;14792;50.886;6.468;2023-07-29T17:11:42;4.72;;;2.52;;
27305;SDS011;14792;50.886;6.468;2023-07-29T17:14:44;6.30;;;2.90;;
27305;SDS011;14792;50.886;6.468;2023-07-29T17:17:45;7.30;;;2.95;;
27305;SDS011;14792;50.886;6.468;2023-07-29T17:20:47;3.77;;;3.20;;
27305;SDS011;14792;50.886;6.468;2023-07-29T17:23:49;6.60;;;3.02;;
27305;SDS011;14792;50.886;6.468;2023-07-29T17:26:50;4.00;;;3.25;;
27305;SDS011;14792;50.886;6.468;2023-07-29T17:29:52;6.28;;;3.52;;
27305;SDS011;14792;50.886;6.468;2023-07-29T17:32:53;6.65;;;3.75;;
27305;SDS011;14792;50.886;6.468;2023-07-29T17:35:55;7.35;;;3.55;;
27305;SDS011;14792;50.886;6.468;2023-07-29T17:38:56;5.90;;;3.00;;
27305;SDS011;14792;50.886;6.468;2023-07-29T17:41:58;3.30;;;2.08;;
27305;SDS011;14792;50.886;6.468;2023-07-29T17:45:00;3.22;;;2.37;;
27305;SDS011;14792;50.886;6.468;2023-07-29T17:48:02;6.50;;;2.60;;
27305;SDS011;14792;50.886;6.468;2023-07-29T17:54:05;4.25;;;3.05;;
27305;SDS011;14792;50.886;6.468;2023-07-29T17:57:09;6.08;;;2.90;;
27305;SDS011;14792;50.886;6.468;2023-07-29T18:00:11;4.65;;;2.98;;
27305;SDS011;14792;50.886;6.468;2023-07-29T18:03:12;4.47;;;2.95;;
27305;SDS011;14792;50.886;6.468;2023-07-29T18:06:14;3.30;;;3.00;;
27305;SDS011;14792;50.886;6.468;2023-07-29T18:09:16;6.12;;;3.05;;
27305;SDS011;14792;50.886;6.468;2023-07-29T18:12:17;4.95;;;3.60;;
27305;SDS011;14792;50.886;6.468;2023-07-29T18:15:19;5.03;;;3.27;;
27305;SDS011;14792;50.886;6.468;2023-07-29T18:18:20;5.40;;;3.58;;
27305;SDS011;14792;50.886;6.468;2023-07-29T18:21:22;6.95;;;3.92;;
27305;SDS011;14792;50.886;6.468;2023-07-29T18:24:24;5.30;;;3.83;;
27305;SDS011;14792;50.886;6.468;2023-07-29T18:27:25;5.50;;;3.60;;
27305;SDS011;14792;50.886;6.468;2023-07-29T18:30:27;3.90;;;3.50;;
27305;SDS011;14792;50.886;6.468;2023-07-29T18:33:31;4.03;;;3.62;;
27305;SDS011;14792;50.886;6.468;2023-07-29T18:36:33;5.70;;;4.28;;
27305;SDS011;14792;50.886;6.468;2023-07-29T18:39:34;4.42;;;3.27;;
27305;SDS011;14792;50.886;6.468;2023-07-29T18:42:38;8.98;;;4.90;;
27305;SDS011;14792;50.886;6.468;2023-07-29T18:45:40;7.03;;;4.70;;
27305;SDS011;14792;50.886;6.468;2023-07-29T18:48:42;7.08;;;5.00;;
27305;SDS011;14792;50.886;6.468;2023-07-29T18:51:43;5.33;;;4.83;;